createdAt,value
2022-09-18T00:01:48.183Z,0.50
2022-09-18T00:04:22.643Z,0.60
2022-09-18T00:06:55.782Z,0.50
2022-09-18T00:09:28.667Z,0.65
2022-09-18T00:12:01.601Z,0.60
2022-09-18T00:14:34.470Z,0.63
2022-09-18T00:17:09.272Z,0.80
2022-09-18T00:19:43.646Z,0.60
2022-09-18T00:22:16.485Z,0.50
2022-09-18T00:24:49.277Z,1.17
2022-09-18T00:27:22.557Z,0.60
2022-09-18T00:29:55.413Z,0.60
2022-09-18T00:32:28.247Z,0.60
2022-09-18T00:35:05.145Z,0.65
2022-09-18T00:37:38.270Z,0.50
2022-09-18T00:40:12.015Z,0.50
2022-09-18T00:42:47.375Z,0.65
2022-09-18T00:45:20.505Z,0.60
2022-09-18T00:47:53.928Z,0.50
2022-09-18T00:50:28.812Z,0.70
2022-09-18T00:53:05.991Z,0.50
2022-09-18T00:55:39.272Z,0.47
2022-09-18T00:58:12.136Z,0.40
2022-09-18T01:00:45.050Z,0.55
2022-09-18T01:03:19.435Z,0.68
2022-09-18T01:06:07.151Z,0.60
2022-09-18T01:08:56.698Z,0.55
2022-09-18T01:11:37.839Z,0.47
2022-09-18T01:14:26.525Z,0.70
2022-09-18T01:17:07.306Z,0.88
2022-09-18T01:20:17.750Z,0.68
2022-09-18T01:23:15.095Z,0.52
2022-09-18T01:26:05.660Z,0.43
2022-09-18T01:28:45.149Z,0.82
2022-09-18T01:31:21.850Z,0.50
2022-09-18T01:34:02.147Z,0.85
2022-09-18T01:36:41.267Z,0.80
2022-09-18T01:39:21.683Z,0.70
2022-09-18T01:41:56.212Z,0.63
2022-09-18T01:44:34.423Z,0.65
2022-09-18T01:47:12.668Z,0.50
2022-09-18T01:49:48.377Z,0.40
2022-09-18T01:52:28.674Z,0.60
2022-09-18T01:55:06.443Z,0.50
2022-09-18T01:57:44.528Z,0.60
2022-09-18T02:00:20.024Z,0.50
2022-09-18T02:02:59.631Z,0.57
2022-09-18T02:05:36.407Z,0.40
2022-09-18T02:08:15.018Z,0.47
2022-09-18T02:10:54.930Z,0.60
2022-09-18T02:13:33.306Z,0.50
2022-09-18T02:16:13.453Z,0.50
2022-09-18T02:18:52.637Z,0.60
2022-09-18T02:21:28.708Z,0.47
2022-09-18T02:24:06.306Z,0.52
2022-09-18T02:26:42.171Z,0.70
2022-09-18T02:29:16.916Z,0.60
2022-09-18T02:31:52.024Z,0.60
2022-09-18T02:34:24.984Z,0.80
2022-09-18T02:37:24.511Z,0.40
2022-09-18T02:40:23.058Z,0.30
2022-09-18T02:43:11.130Z,0.50
2022-09-18T02:45:54.597Z,0.63
2022-09-18T02:48:48.101Z,0.60
2022-09-18T02:51:30.589Z,0.40
2022-09-18T02:54:08.305Z,0.60
2022-09-18T02:56:45.569Z,0.57
2022-09-18T02:59:22.763Z,0.40
2022-09-18T03:01:57.103Z,0.55
2022-09-18T03:04:31.516Z,0.55
2022-09-18T03:07:04.584Z,0.40
2022-09-18T03:09:38.091Z,0.35
2022-09-18T03:12:11.209Z,0.57
2022-09-18T03:14:44.235Z,0.77
2022-09-18T03:17:17.713Z,0.50
2022-09-18T03:19:52.006Z,0.50
2022-09-18T03:22:24.921Z,0.50
2022-09-18T03:24:57.804Z,0.55
2022-09-18T03:27:30.670Z,0.50
2022-09-18T03:30:03.485Z,0.45
2022-09-18T03:32:36.443Z,0.57
2022-09-18T03:35:11.466Z,0.68
2022-09-18T03:37:44.432Z,0.45
2022-09-18T03:40:17.660Z,0.50
2022-09-18T03:42:52.043Z,0.63
2022-09-18T03:45:25.902Z,0.70
2022-09-18T03:47:58.716Z,0.43
2022-09-18T03:50:33.213Z,0.47
2022-09-18T03:53:06.109Z,0.68
2022-09-18T03:55:39.119Z,0.90
2022-09-18T03:58:12.166Z,0.68
2022-09-18T04:00:45.220Z,0.52
2022-09-18T04:03:18.171Z,0.65
2022-09-18T04:05:52.693Z,0.50
2022-09-18T04:08:25.590Z,0.65
2022-09-18T04:10:58.470Z,1.02
2022-09-18T04:13:31.407Z,0.60
2022-09-18T04:16:04.301Z,0.80
2022-09-18T04:18:37.232Z,0.73
2022-09-18T04:21:13.607Z,0.55
2022-09-18T04:23:46.649Z,0.60
2022-09-18T04:26:21.935Z,0.70
2022-09-18T04:28:54.917Z,0.68
2022-09-18T04:31:27.979Z,0.70
2022-09-18T04:34:01.200Z,0.60
2022-09-18T04:36:36.088Z,0.50
2022-09-18T04:39:08.961Z,0.60
2022-09-18T04:41:41.762Z,0.60
2022-09-18T04:44:14.664Z,0.55
2022-09-18T04:46:49.828Z,1.42
2022-09-18T04:49:22.878Z,0.77
2022-09-18T04:51:57.054Z,0.80
2022-09-18T04:54:30.098Z,0.47
2022-09-18T04:57:02.958Z,0.50
2022-09-18T04:59:35.767Z,0.70
2022-09-18T05:02:11.233Z,0.70
2022-09-18T05:04:44.233Z,0.47
2022-09-18T05:07:18.478Z,0.52
2022-09-18T05:09:51.734Z,0.80
2022-09-18T05:12:24.911Z,0.50
2022-09-18T05:14:57.854Z,0.52
2022-09-18T05:17:32.793Z,0.93
2022-09-18T05:20:06.359Z,0.50
2022-09-18T05:22:40.916Z,0.60
2022-09-18T05:25:14.145Z,0.40
2022-09-18T05:27:54.688Z,0.60
2022-09-18T05:30:28.250Z,0.68
2022-09-18T05:33:02.892Z,0.60
2022-09-18T05:35:37.532Z,0.55
2022-09-18T05:38:13.443Z,0.47
2022-09-18T05:40:46.903Z,0.80
2022-09-18T05:43:20.599Z,0.60
2022-09-18T05:45:53.655Z,0.60
2022-09-18T05:48:26.909Z,0.40
2022-09-18T05:51:01.090Z,0.60
2022-09-18T05:53:36.733Z,0.50
2022-09-18T05:56:09.988Z,0.47
2022-09-18T05:58:42.961Z,0.60
2022-09-18T06:01:15.946Z,0.60
2022-09-18T06:03:50.454Z,0.80
2022-09-18T06:06:23.298Z,0.60
2022-09-18T06:08:57.624Z,0.50
2022-09-18T06:11:30.429Z,0.50
2022-09-18T06:14:03.342Z,0.40
2022-09-18T06:16:41.328Z,1.15
2022-09-18T06:19:14.891Z,0.68
2022-09-18T06:21:47.893Z,0.40
2022-09-18T06:24:22.126Z,0.52
2022-09-18T06:26:55.014Z,0.52
2022-09-18T06:29:28.904Z,0.60
2022-09-18T06:32:02.018Z,0.73
2022-09-18T06:34:38.630Z,0.80
2022-09-18T06:37:12.253Z,0.70
2022-09-18T06:39:47.374Z,0.70
2022-09-18T06:42:20.297Z,1.00
2022-09-18T06:44:53.101Z,0.50
2022-09-18T06:47:26.105Z,0.50
2022-09-18T06:49:58.999Z,0.60
2022-09-18T06:52:33.178Z,0.52
2022-09-18T06:55:08.121Z,0.70
2022-09-18T06:57:40.999Z,0.52
2022-09-18T07:00:14.218Z,0.82
2022-09-18T07:02:47.224Z,0.60
2022-09-18T07:05:20.296Z,0.50
2022-09-18T07:07:53.180Z,0.57
2022-09-18T07:10:28.167Z,0.30
2022-09-18T07:13:02.832Z,0.77
2022-09-18T07:15:35.803Z,0.40
2022-09-18T07:18:09.219Z,0.55
2022-09-18T07:20:42.063Z,0.47
2022-09-18T07:23:15.011Z,0.60
2022-09-18T07:25:49.216Z,0.70
2022-09-18T07:28:31.668Z,0.60
2022-09-18T07:31:05.404Z,0.68
2022-09-18T07:33:38.395Z,0.50
2022-09-18T07:36:11.527Z,0.60
2022-09-18T07:38:44.441Z,0.47
2022-09-18T07:41:18.744Z,0.50
2022-09-18T07:43:52.026Z,0.40
2022-09-18T07:46:26.477Z,0.50
2022-09-18T07:48:59.413Z,0.50
2022-09-18T07:51:32.222Z,0.63
2022-09-18T07:54:05.220Z,0.68
2022-09-18T07:56:43.578Z,0.47
2022-09-18T07:59:19.349Z,0.32
2022-09-18T08:01:52.977Z,0.50
2022-09-18T08:04:26.036Z,0.60
2022-09-18T08:07:03.886Z,0.70
2022-09-18T08:09:36.680Z,0.50
2022-09-18T08:12:10.889Z,0.60
2022-09-18T08:14:43.745Z,0.50
2022-09-18T08:17:16.577Z,0.70
2022-09-18T08:19:49.468Z,0.52
2022-09-18T08:22:22.406Z,0.60
2022-09-18T08:24:55.389Z,0.40
2022-09-18T08:27:29.573Z,0.30
2022-09-18T08:30:02.526Z,0.22
2022-09-18T08:32:35.714Z,0.40
2022-09-18T08:35:09.113Z,0.22
2022-09-18T08:37:50.007Z,0.45
2022-09-18T08:40:31.833Z,0.60
2022-09-18T08:45:56.078Z,0.35
2022-09-18T08:48:34.522Z,0.50
2022-09-18T08:51:17.083Z,0.40
2022-09-18T08:53:55.798Z,0.40
2022-09-18T08:56:29.961Z,0.30
2022-09-18T08:59:08.921Z,0.50
2022-09-18T09:01:47.440Z,0.50
2022-09-18T09:04:28.461Z,0.35
2022-09-18T09:07:12.905Z,0.50
2022-09-18T09:10:00.590Z,0.35
2022-09-18T09:12:44.412Z,0.57
2022-09-18T09:15:32.027Z,0.30
2022-09-18T09:18:18.156Z,0.50
2022-09-18T09:20:53.521Z,0.40
2022-09-18T09:23:43.767Z,0.52
2022-09-18T09:26:20.036Z,0.43
2022-09-18T09:28:59.249Z,0.50
2022-09-18T09:31:38.557Z,0.50
2022-09-18T09:34:17.098Z,0.30
2022-09-18T09:36:52.932Z,0.40
2022-09-18T09:39:30.527Z,0.50
2022-09-18T09:42:10.101Z,0.40
2022-09-18T09:44:49.754Z,0.82
2022-09-18T09:47:35.539Z,0.60
2022-09-18T09:50:22.195Z,0.50
2022-09-18T09:52:59.720Z,0.30
2022-09-18T09:55:38.265Z,0.63
2022-09-18T09:58:19.538Z,0.63
2022-09-18T10:00:58.585Z,0.65
2022-09-18T10:03:42.303Z,0.40
2022-09-18T10:06:30.734Z,0.30
2022-09-18T10:09:10.506Z,0.40
2022-09-18T10:11:48.482Z,0.80
2022-09-18T10:14:26.389Z,0.40
2022-09-18T10:17:00.336Z,0.38
2022-09-18T10:19:39.515Z,0.50
2022-09-18T10:22:17.059Z,0.60
2022-09-18T10:24:57.976Z,0.38
2022-09-18T10:27:30.997Z,0.30
2022-09-18T10:30:12.686Z,0.35
2022-09-18T10:35:42.772Z,0.20
2022-09-18T10:38:30.627Z,0.20
2022-09-18T10:41:26.362Z,0.22
2022-09-18T10:44:05.136Z,0.20
2022-09-18T10:46:41.856Z,0.35
2022-09-18T10:49:20.870Z,0.30
2022-09-18T10:52:32.906Z,0.32
2022-09-18T10:55:18.268Z,0.30
2022-09-18T10:58:14.643Z,0.30
2022-09-18T11:00:51.263Z,0.30
2022-09-18T11:03:37.622Z,0.40
2022-09-18T11:06:18.396Z,0.40
2022-09-18T11:08:54.409Z,0.65
2022-09-18T11:11:29.955Z,0.40
2022-09-18T11:14:05.841Z,0.30
2022-09-18T11:16:43.150Z,0.40
2022-09-18T11:19:25.408Z,0.50
2022-09-18T11:22:03.318Z,0.30
2022-09-18T11:24:42.020Z,0.60
2022-09-18T11:27:21.368Z,0.40
2022-09-18T11:29:58.919Z,0.40
2022-09-18T11:32:32.043Z,0.50
2022-09-18T11:35:06.309Z,0.22
2022-09-18T11:37:44.759Z,0.28
2022-09-18T11:40:23.042Z,0.38
2022-09-18T11:42:56.849Z,0.10
2022-09-18T11:45:42.008Z,0.40
2022-09-18T11:48:25.123Z,0.60
2022-09-18T11:51:01.720Z,0.75
2022-09-18T11:53:40.760Z,0.43
2022-09-18T11:56:21.495Z,0.30
2022-09-18T11:58:59.930Z,0.50
2022-09-18T12:01:38.474Z,0.45
2022-09-18T12:04:17.647Z,0.80
2022-09-18T12:06:58.615Z,0.50
2022-09-18T12:09:45.707Z,0.65
2022-09-18T12:12:24.930Z,0.40
2022-09-18T12:15:04.506Z,0.80
2022-09-18T12:17:43.740Z,0.40
2022-09-18T12:20:23.557Z,0.40
2022-09-18T12:22:58.387Z,0.50
2022-09-18T12:25:41.648Z,0.63
2022-09-18T12:28:28.202Z,0.40
2022-09-18T12:31:14.492Z,0.50
2022-09-18T12:33:56.174Z,0.63
2022-09-18T12:36:54.395Z,0.40
2022-09-18T12:39:51.204Z,0.52
2022-09-18T12:42:38.508Z,0.40
2022-09-18T12:45:40.486Z,0.40
2022-09-18T12:51:09.892Z,0.38
2022-09-18T12:53:53.994Z,0.57
2022-09-18T12:56:38.992Z,0.70
2022-09-18T12:59:30.739Z,0.50
2022-09-18T13:02:23.289Z,0.50
2022-09-18T13:05:01.986Z,0.40
2022-09-18T13:07:38.549Z,0.90
2022-09-18T13:10:18.970Z,0.68
2022-09-18T13:12:59.432Z,0.85
2022-09-18T13:15:37.347Z,0.52
2022-09-18T13:18:23.756Z,0.30
2022-09-18T13:20:59.455Z,0.50
2022-09-18T13:23:36.438Z,0.50
2022-09-18T13:26:13.807Z,0.43
2022-09-18T13:28:46.660Z,0.50
2022-09-18T13:31:28.841Z,0.60
2022-09-18T13:34:05.299Z,0.60
2022-09-18T13:36:40.538Z,0.50
2022-09-18T13:39:18.751Z,0.50
2022-09-18T13:41:54.340Z,0.50
2022-09-18T13:44:29.010Z,0.50
2022-09-18T13:47:12.211Z,0.60
2022-09-18T13:49:52.051Z,0.55
2022-09-18T13:52:43.181Z,0.55
2022-09-18T13:55:36.085Z,0.52
2022-09-18T13:58:35.913Z,0.43
2022-09-18T14:01:10.956Z,0.28
2022-09-18T14:03:44.081Z,0.30
2022-09-18T14:06:46.828Z,0.47
2022-09-18T14:09:39.282Z,0.20
2022-09-18T14:12:13.443Z,0.40
2022-09-18T14:15:01.026Z,0.38
2022-09-18T14:17:37.067Z,0.70
2022-09-18T14:20:21.902Z,0.50
2022-09-18T14:22:56.468Z,0.70
2022-09-18T14:25:45.680Z,0.50
2022-09-18T14:28:21.471Z,0.32
2022-09-18T14:31:14.260Z,0.60
2022-09-18T14:33:47.094Z,0.50
2022-09-18T14:36:20.059Z,0.45
2022-09-18T14:39:27.102Z,0.47
2022-09-18T14:42:16.437Z,0.40
2022-09-18T14:45:12.652Z,0.40
2022-09-18T14:47:48.022Z,0.70
2022-09-18T14:50:33.844Z,0.50
2022-09-18T14:53:24.043Z,0.47
2022-09-18T14:56:02.077Z,0.60
2022-09-18T14:58:37.702Z,1.33
2022-09-18T15:01:16.981Z,0.90
2022-09-18T15:03:52.465Z,0.50
2022-09-18T15:06:32.160Z,0.50
2022-09-18T15:09:07.433Z,0.55
2022-09-18T15:12:01.444Z,0.43
2022-09-18T15:14:43.030Z,0.40
2022-09-18T15:17:20.606Z,0.68
2022-09-18T15:19:58.954Z,0.47
2022-09-18T15:22:31.979Z,0.55
2022-09-18T15:25:05.471Z,0.40
2022-09-18T15:27:40.551Z,0.50
2022-09-18T15:30:18.742Z,0.40
2022-09-18T15:32:56.547Z,0.40
2022-09-18T15:35:31.314Z,0.57
2022-09-18T15:38:06.879Z,0.40
2022-09-18T15:40:40.857Z,0.60
2022-09-18T15:46:28.041Z,0.63
2022-09-18T15:49:25.377Z,0.65
2022-09-18T15:51:59.072Z,1.00
2022-09-18T15:54:31.890Z,0.43
2022-09-18T15:57:05.613Z,0.60
2022-09-18T15:59:40.914Z,0.57
2022-09-18T16:02:27.653Z,0.60
2022-09-18T16:05:08.553Z,0.60
2022-09-18T16:07:54.077Z,0.75
2022-09-18T16:10:50.659Z,0.88
2022-09-18T16:13:36.708Z,0.40
2022-09-18T16:16:23.863Z,0.50
2022-09-18T16:19:10.004Z,0.60
2022-09-18T16:21:45.335Z,0.57
2022-09-18T16:24:25.439Z,0.90
2022-09-18T16:27:06.308Z,0.98
2022-09-18T16:29:40.329Z,1.27
2022-09-18T16:32:13.899Z,1.63
2022-09-18T16:34:48.078Z,2.40
2022-09-18T16:37:23.066Z,2.30
2022-09-18T16:39:56.164Z,1.80
2022-09-18T16:42:30.426Z,1.80
2022-09-18T16:45:03.298Z,1.60
2022-09-18T16:47:37.101Z,1.33
2022-09-18T16:50:11.662Z,1.23
2022-09-18T16:52:44.647Z,0.73
2022-09-18T16:55:17.682Z,0.70
2022-09-18T16:57:52.223Z,1.10
2022-09-18T17:00:25.584Z,1.17
2022-09-18T17:03:00.565Z,1.02
2022-09-18T17:05:35.784Z,0.80
2022-09-18T17:08:10.879Z,0.85
2022-09-18T17:10:45.282Z,0.70
2022-09-18T17:13:18.327Z,0.70
2022-09-18T17:15:52.438Z,0.80
2022-09-18T17:18:25.377Z,0.65
2022-09-18T17:21:01.988Z,0.80
2022-09-18T17:23:34.839Z,1.30
2022-09-18T17:30:49.165Z,0.95
2022-09-18T17:33:22.117Z,1.15
2022-09-18T17:35:56.436Z,1.00
2022-09-18T17:38:42.481Z,0.63
2022-09-18T17:41:23.309Z,0.68
2022-09-18T17:43:56.199Z,0.50
2022-09-18T17:47:32.053Z,0.50
2022-09-18T17:51:28.855Z,0.60
2022-09-18T17:53:43.959Z,0.65
2022-09-18T17:59:54.651Z,0.50
2022-09-18T18:06:12.855Z,0.73
2022-09-18T18:08:47.261Z,1.15
2022-09-18T18:11:22.711Z,1.08
2022-09-18T18:13:56.320Z,1.00
2022-09-18T18:16:31.238Z,0.60
2022-09-18T18:19:12.245Z,0.75
2022-09-18T18:21:45.190Z,0.60
2022-09-18T18:24:21.940Z,0.60
2022-09-18T18:26:55.798Z,0.65
2022-09-18T18:29:28.878Z,1.17
2022-09-18T18:32:02.109Z,0.80
2022-09-18T18:34:35.124Z,1.23
2022-09-18T18:37:08.009Z,0.73
2022-09-18T18:39:42.281Z,0.50
2022-09-18T18:42:15.216Z,0.77
2022-09-18T18:44:48.074Z,0.52
2022-09-18T18:47:21.054Z,0.57
2022-09-18T18:49:54.282Z,0.75
2022-09-18T18:52:27.217Z,1.15
2022-09-18T18:55:02.024Z,0.60
2022-09-18T18:58:08.705Z,0.60
2022-09-18T19:00:39.669Z,0.60
2022-09-18T19:03:12.757Z,0.68
2022-09-18T19:05:45.861Z,0.30
2022-09-18T19:08:18.776Z,0.60
2022-09-18T19:10:58.219Z,0.70
2022-09-18T19:13:32.223Z,0.68
2022-09-18T19:16:05.469Z,0.55
2022-09-18T19:18:39.017Z,0.50
2022-09-18T19:21:11.917Z,0.63
2022-09-18T19:23:44.741Z,0.60
2022-09-18T19:26:20.858Z,0.50
2022-09-18T19:28:55.320Z,0.63
2022-09-18T19:31:31.167Z,0.43
2022-09-18T19:34:05.236Z,0.60
2022-09-18T19:36:39.445Z,0.40
2022-09-18T19:39:14.563Z,0.93
2022-09-18T19:41:53.392Z,0.95
2022-09-18T19:44:32.512Z,0.52
2022-09-18T19:47:15.251Z,0.68
2022-09-18T19:49:49.361Z,0.50
2022-09-18T19:52:24.448Z,0.63
2022-09-18T19:54:58.713Z,0.50
2022-09-18T19:57:32.999Z,0.63
2022-09-18T20:00:06.781Z,0.60
2022-09-18T20:02:41.351Z,0.70
2022-09-18T20:05:14.210Z,0.90
2022-09-18T20:07:52.948Z,0.80
2022-09-18T20:10:25.873Z,0.47
2022-09-18T20:13:00.841Z,0.40
2022-09-18T20:15:33.656Z,0.88
2022-09-18T20:18:08.475Z,1.10
2022-09-18T20:20:41.609Z,1.33
2022-09-18T20:23:15.650Z,0.60
2022-09-18T20:25:52.839Z,0.60
2022-09-18T20:28:28.051Z,0.60
2022-09-18T20:31:02.992Z,0.68
2022-09-18T20:33:36.661Z,0.40
2022-09-18T20:36:13.636Z,0.22
2022-09-18T20:38:47.365Z,0.50
2022-09-18T20:41:23.203Z,0.50
2022-09-18T20:44:01.236Z,0.38
2022-09-18T20:46:37.527Z,0.45
2022-09-18T20:49:18.543Z,0.60
2022-09-18T20:51:51.707Z,0.55
2022-09-18T20:54:24.857Z,0.38
2022-09-18T20:56:57.982Z,0.50
2022-09-18T20:59:35.151Z,0.47
2022-09-18T21:02:08.967Z,0.40
2022-09-18T21:04:47.109Z,0.50
2022-09-18T21:07:21.516Z,0.70
2022-09-18T21:09:57.670Z,0.50
2022-09-18T21:12:38.703Z,0.63
2022-09-18T21:15:15.498Z,0.60
2022-09-18T21:17:51.480Z,0.50
2022-09-18T21:20:25.162Z,0.50
2022-09-18T21:23:23.901Z,0.88
2022-09-18T21:25:57.884Z,0.60
2022-09-18T21:28:30.784Z,0.50
2022-09-18T21:31:12.037Z,0.40
2022-09-18T21:33:45.279Z,0.50
2022-09-18T21:36:18.157Z,0.30
2022-09-18T21:38:52.522Z,0.40
2022-09-18T21:41:26.552Z,0.40
2022-09-18T21:43:59.764Z,0.57
2022-09-18T21:46:37.006Z,0.95
2022-09-18T21:49:09.871Z,0.60
2022-09-18T21:51:43.504Z,0.77
2022-09-18T21:54:18.173Z,0.65
2022-09-18T21:56:52.538Z,0.50
2022-09-18T21:59:26.846Z,0.40
2022-09-18T22:02:03.482Z,0.22
2022-09-18T22:04:38.114Z,0.40
2022-09-18T22:07:12.220Z,0.40
2022-09-18T22:09:45.664Z,0.60
2022-09-18T22:12:18.931Z,1.15
2022-09-18T22:14:51.862Z,0.50
2022-09-18T22:17:27.105Z,0.40
2022-09-18T22:20:00.093Z,0.45
2022-09-18T22:22:33.036Z,0.55
2022-09-18T22:25:06.682Z,0.52
2022-09-18T22:27:40.247Z,0.60
2022-09-18T22:30:13.745Z,0.50
2022-09-18T22:32:48.362Z,0.47
2022-09-18T22:35:21.245Z,0.50
2022-09-18T22:37:54.743Z,0.50
2022-09-18T22:40:27.725Z,0.40
2022-09-18T22:43:01.414Z,0.32
2022-09-18T22:45:34.433Z,0.40
2022-09-18T22:48:08.966Z,0.50
2022-09-18T22:50:43.473Z,0.47
2022-09-18T22:53:16.830Z,0.30
2022-09-18T22:55:49.738Z,0.50
2022-09-18T22:58:22.828Z,0.38
2022-09-18T23:00:55.652Z,0.40
2022-09-18T23:03:30.217Z,0.55
2022-09-18T23:06:03.351Z,0.40
2022-09-18T23:08:37.090Z,0.40
2022-09-18T23:11:12.373Z,0.30
2022-09-18T23:13:50.247Z,0.40
2022-09-18T23:16:24.842Z,0.50
2022-09-18T23:19:02.615Z,0.45
2022-09-18T23:21:36.593Z,0.50
2022-09-18T23:24:10.733Z,0.65
2022-09-18T23:26:46.983Z,0.43
2022-09-18T23:29:22.810Z,0.40
2022-09-18T23:31:57.558Z,0.60
2022-09-18T23:34:33.777Z,0.40
2022-09-18T23:37:06.686Z,0.30
2022-09-18T23:39:39.637Z,0.60
2022-09-18T23:42:12.761Z,0.40
2022-09-18T23:44:45.666Z,0.40
2022-09-18T23:47:18.989Z,0.32
2022-09-18T23:49:53.265Z,0.40
2022-09-18T23:52:26.465Z,0.47
2022-09-18T23:54:59.504Z,0.40
2022-09-18T23:57:32.364Z,0.40
